Archival Weather

Wadi Al Dawasir

Wadi Al Dawasir, Saudi Arabia (OEWD)

Report from: Thursday, February 22, 2024 3:00 AM +03
Current time: Wednesday, April 24, 2024 10:03 PM +03

Current weather – Weather history – Daily summaries
Weather forecast

Temperature19.0°C (66.2°F)
Dew point-2.0°C (28.4°F)
Winds 17 kts (8.7 m/s, 19.6 mph) East-Southeast (110°)
Clouds Sky clear
Altimeter30.06 in.Hg (1018 mB)
Relative humidity24 %
Density altitude395 ft. (120 m)
Remarks Ceiling and visibility OK
Flight conditions Visual Meteorological Conditions
Raw dataOEWD 220000Z 11017KT CAVOK 19/M02 Q1018
An error has occurred. This application may no longer respond until reloaded. Reload 🗙